sensor_id;sensor_type;location;lat;lon;timestamp;temperature;humidity
52963;DHT22;38827;53.024;6.596;2022-09-27T00:00:43;10.40;85.70
52963;DHT22;38827;53.024;6.596;2022-09-27T00:03:10;10.30;85.70
52963;DHT22;38827;53.024;6.596;2022-09-27T00:11:44;10.30;85.90
52963;DHT22;38827;53.024;6.596;2022-09-27T00:14:14;10.30;86.00
52963;DHT22;38827;53.024;6.596;2022-09-27T00:16:42;10.30;86.10
52963;DHT22;38827;53.024;6.596;2022-09-27T00:19:13;10.30;86.10
52963;DHT22;38827;53.024;6.596;2022-09-27T00:21:40;10.30;86.10
52963;DHT22;38827;53.024;6.596;2022-09-27T00:24:06;10.30;86.10
52963;DHT22;38827;53.024;6.596;2022-09-27T00:26:32;10.30;86.10
52963;DHT22;38827;53.024;6.596;2022-09-27T00:28:58;10.30;86.00
52963;DHT22;38827;53.024;6.596;2022-09-27T00:31:28;10.30;86.10
52963;DHT22;38827;53.024;6.596;2022-09-27T00:34:05;10.30;86.10
52963;DHT22;38827;53.024;6.596;2022-09-27T00:40:10;10.30;86.10
52963;DHT22;38827;53.024;6.596;2022-09-27T00:42:35;10.20;86.10
52963;DHT22;38827;53.024;6.596;2022-09-27T00:45:21;10.20;86.00
52963;DHT22;38827;53.024;6.596;2022-09-27T00:50:44;10.20;86.10
52963;DHT22;38827;53.024;6.596;2022-09-27T00:53:52;10.20;86.20
52963;DHT22;38827;53.024;6.596;2022-09-27T00:56:26;10.20;86.20
52963;DHT22;38827;53.024;6.596;2022-09-27T01:02:20;10.10;86.30
52963;DHT22;38827;53.024;6.596;2022-09-27T01:04:46;10.10;86.30
52963;DHT22;38827;53.024;6.596;2022-09-27T01:10:06;10.10;86.20
52963;DHT22;38827;53.024;6.596;2022-09-27T01:37:02;9.90;86.60
52963;DHT22;38827;53.024;6.596;2022-09-27T01:42:33;9.90;86.70
52963;DHT22;38827;53.024;6.596;2022-09-27T01:47:46;10.00;86.70
52963;DHT22;38827;53.024;6.596;2022-09-27T01:50:31;10.00;86.80
52963;DHT22;38827;53.024;6.596;2022-09-27T01:53:04;10.00;86.60
52963;DHT22;38827;53.024;6.596;2022-09-27T01:55:42;10.00;86.60
52963;DHT22;38827;53.024;6.596;2022-09-27T01:58:32;10.00;86.60
52963;DHT22;38827;53.024;6.596;2022-09-27T02:01:31;10.00;86.50
52963;DHT22;38827;53.024;6.596;2022-09-27T02:07:16;10.00;86.50
52963;DHT22;38827;53.024;6.596;2022-09-27T02:10:17;10.00;86.60
52963;DHT22;38827;53.024;6.596;2022-09-27T02:13:22;10.00;86.40
52963;DHT22;38827;53.024;6.596;2022-09-27T02:16:20;10.00;86.40
52963;DHT22;38827;53.024;6.596;2022-09-27T02:18:52;10.00;86.40
52963;DHT22;38827;53.024;6.596;2022-09-27T02:21:55;10.00;86.50
52963;DHT22;38827;53.024;6.596;2022-09-27T02:27:58;10.00;86.40
52963;DHT22;38827;53.024;6.596;2022-09-27T02:30:31;10.00;86.40
52963;DHT22;38827;53.024;6.596;2022-09-27T02:32:57;10.00;86.60
52963;DHT22;38827;53.024;6.596;2022-09-27T02:35:45;10.00;86.50
52963;DHT22;38827;53.024;6.596;2022-09-27T02:38:28;10.00;86.50
52963;DHT22;38827;53.024;6.596;2022-09-27T02:41:00;10.00;86.60
52963;DHT22;38827;53.024;6.596;2022-09-27T02:43:47;10.00;86.70
52963;DHT22;38827;53.024;6.596;2022-09-27T03:00:09;9.90;86.80
52963;DHT22;38827;53.024;6.596;2022-09-27T03:08:17;9.80;86.70
52963;DHT22;38827;53.024;6.596;2022-09-27T03:10:46;9.70;86.70
52963;DHT22;38827;53.024;6.596;2022-09-27T03:13:27;9.80;86.50
52963;DHT22;38827;53.024;6.596;2022-09-27T03:16:08;9.80;86.40
52963;DHT22;38827;53.024;6.596;2022-09-27T03:18:33;9.70;86.30
52963;DHT22;38827;53.024;6.596;2022-09-27T03:21:42;9.70;86.30
52963;DHT22;38827;53.024;6.596;2022-09-27T03:24:11;9.70;86.20
52963;DHT22;38827;53.024;6.596;2022-09-27T03:32:11;9.70;86.10
52963;DHT22;38827;53.024;6.596;2022-09-27T03:34:37;9.60;86.00
52963;DHT22;38827;53.024;6.596;2022-09-27T03:37:03;9.60;85.90
52963;DHT22;38827;53.024;6.596;2022-09-27T03:40:02;9.60;85.70
52963;DHT22;38827;53.024;6.596;2022-09-27T03:42:28;9.60;85.70
52963;DHT22;38827;53.024;6.596;2022-09-27T03:45:06;9.60;85.80
52963;DHT22;38827;53.024;6.596;2022-09-27T03:47:39;9.60;85.90
52963;DHT22;38827;53.024;6.596;2022-09-27T03:50:11;9.60;86.00
52963;DHT22;38827;53.024;6.596;2022-09-27T03:55:45;9.60;85.90
52963;DHT22;38827;53.024;6.596;2022-09-27T03:58:10;9.60;86.00
52963;DHT22;38827;53.024;6.596;2022-09-27T04:00:37;9.60;86.00
52963;DHT22;38827;53.024;6.596;2022-09-27T04:03:05;9.60;86.00
52963;DHT22;38827;53.024;6.596;2022-09-27T04:05:31;9.60;86.10
52963;DHT22;38827;53.024;6.596;2022-09-27T04:07:57;9.60;86.20
52963;DHT22;38827;53.024;6.596;2022-09-27T04:10:23;9.60;86.20
52963;DHT22;38827;53.024;6.596;2022-09-27T04:12:49;9.60;86.30
52963;DHT22;38827;53.024;6.596;2022-09-27T04:15:14;9.60;86.30
52963;DHT22;38827;53.024;6.596;2022-09-27T04:17:41;9.60;86.30
52963;DHT22;38827;53.024;6.596;2022-09-27T04:20:08;9.60;86.30
52963;DHT22;38827;53.024;6.596;2022-09-27T04:22:38;9.60;86.40
52963;DHT22;38827;53.024;6.596;2022-09-27T04:25:09;9.60;86.40
52963;DHT22;38827;53.024;6.596;2022-09-27T04:27:35;9.50;86.40
52963;DHT22;38827;53.024;6.596;2022-09-27T04:30:01;9.50;86.30
52963;DHT22;38827;53.024;6.596;2022-09-27T04:32:27;9.50;86.40
52963;DHT22;38827;53.024;6.596;2022-09-27T04:35:00;9.50;86.30
52963;DHT22;38827;53.024;6.596;2022-09-27T04:37:45;9.50;86.40
52963;DHT22;38827;53.024;6.596;2022-09-27T04:40:16;9.50;86.60
52963;DHT22;38827;53.024;6.596;2022-09-27T04:42:42;9.40;86.50
52963;DHT22;38827;53.024;6.596;2022-09-27T04:45:08;9.50;86.70
52963;DHT22;38827;53.024;6.596;2022-09-27T04:47:33;9.50;86.70
52963;DHT22;38827;53.024;6.596;2022-09-27T04:49:59;9.50;86.80
52963;DHT22;38827;53.024;6.596;2022-09-27T04:58:55;9.40;86.80
52963;DHT22;38827;53.024;6.596;2022-09-27T05:01:23;9.40;86.80
52963;DHT22;38827;53.024;6.596;2022-09-27T05:07:05;9.40;86.70
52963;DHT22;38827;53.024;6.596;2022-09-27T05:09:45;9.30;86.70
52963;DHT22;38827;53.024;6.596;2022-09-27T05:12:20;9.30;86.70
52963;DHT22;38827;53.024;6.596;2022-09-27T05:14:46;9.30;86.70
52963;DHT22;38827;53.024;6.596;2022-09-27T05:17:18;9.30;86.80
52963;DHT22;38827;53.024;6.596;2022-09-27T05:19:49;9.30;86.80
52963;DHT22;38827;53.024;6.596;2022-09-27T05:22:27;9.20;86.90
52963;DHT22;38827;53.024;6.596;2022-09-27T05:28:53;9.20;86.80
52963;DHT22;38827;53.024;6.596;2022-09-27T05:35:35;9.10;87.00
52963;DHT22;38827;53.024;6.596;2022-09-27T05:41:29;9.10;87.10
52963;DHT22;38827;53.024;6.596;2022-09-27T05:43:57;9.10;87.10
52963;DHT22;38827;53.024;6.596;2022-09-27T05:46:32;9.10;87.00
52963;DHT22;38827;53.024;6.596;2022-09-27T05:49:16;9.10;87.00
52963;DHT22;38827;53.024;6.596;2022-09-27T05:51:51;9.10;87.00
52963;DHT22;38827;53.024;6.596;2022-09-27T05:54:32;9.10;86.90
52963;DHT22;38827;53.024;6.596;2022-09-27T05:56:59;9.10;86.90
52963;DHT22;38827;53.024;6.596;2022-09-27T05:59:43;9.10;86.90
52963;DHT22;38827;53.024;6.596;2022-09-27T06:02:31;9.10;86.80
52963;DHT22;38827;53.024;6.596;2022-09-27T06:05:14;9.20;86.80
52963;DHT22;38827;53.024;6.596;2022-09-27T06:07:40;9.20;86.90
52963;DHT22;38827;53.024;6.596;2022-09-27T06:10:26;9.20;86.80
52963;DHT22;38827;53.024;6.596;2022-09-27T06:12:53;9.20;86.90
52963;DHT22;38827;53.024;6.596;2022-09-27T06:15:19;9.20;86.90
52963;DHT22;38827;53.024;6.596;2022-09-27T06:17:45;9.20;86.80
52963;DHT22;38827;53.024;6.596;2022-09-27T06:20:11;9.20;86.90
52963;DHT22;38827;53.024;6.596;2022-09-27T06:22:37;9.30;86.80
52963;DHT22;38827;53.024;6.596;2022-09-27T06:25:04;9.30;86.70
52963;DHT22;38827;53.024;6.596;2022-09-27T06:27:30;9.30;86.70
52963;DHT22;38827;53.024;6.596;2022-09-27T06:29:56;9.40;86.60
52963;DHT22;38827;53.024;6.596;2022-09-27T06:32:22;9.40;86.60
52963;DHT22;38827;53.024;6.596;2022-09-27T06:34:49;9.40;86.60
52963;DHT22;38827;53.024;6.596;2022-09-27T06:37:14;9.50;86.50
52963;DHT22;38827;53.024;6.596;2022-09-27T06:39:40;9.50;86.40
52963;DHT22;38827;53.024;6.596;2022-09-27T06:42:06;9.70;86.40
52963;DHT22;38827;53.024;6.596;2022-09-27T06:44:33;9.80;86.20
52963;DHT22;38827;53.024;6.596;2022-09-27T06:46:59;9.80;86.00
52963;DHT22;38827;53.024;6.596;2022-09-27T06:49:27;9.90;85.60
52963;DHT22;38827;53.024;6.596;2022-09-27T06:51:53;10.00;85.50
52963;DHT22;38827;53.024;6.596;2022-09-27T06:54:19;10.10;85.50
52963;DHT22;38827;53.024;6.596;2022-09-27T06:56:49;10.30;85.50
52963;DHT22;38827;53.024;6.596;2022-09-27T06:59:15;10.60;84.90
52963;DHT22;38827;53.024;6.596;2022-09-27T07:01:59;10.90;84.50
52963;DHT22;38827;53.024;6.596;2022-09-27T07:04:26;11.60;83.30
52963;DHT22;38827;53.024;6.596;2022-09-27T07:06:51;12.00;81.20
52963;DHT22;38827;53.024;6.596;2022-09-27T07:09:18;12.10;80.50
52963;DHT22;38827;53.024;6.596;2022-09-27T07:11:43;12.10;80.00
52963;DHT22;38827;53.024;6.596;2022-09-27T07:14:10;11.90;79.90
52963;DHT22;38827;53.024;6.596;2022-09-27T07:16:36;11.80;80.20
52963;DHT22;38827;53.024;6.596;2022-09-27T07:19:02;11.70;80.20
52963;DHT22;38827;53.024;6.596;2022-09-27T07:21:32;11.60;80.70
52963;DHT22;38827;53.024;6.596;2022-09-27T07:23:58;11.50;80.90
52963;DHT22;38827;53.024;6.596;2022-09-27T07:26:25;11.50;80.90
52963;DHT22;38827;53.024;6.596;2022-09-27T07:28:50;11.40;81.10
52963;DHT22;38827;53.024;6.596;2022-09-27T07:31:17;11.40;81.00
52963;DHT22;38827;53.024;6.596;2022-09-27T07:33:46;11.30;81.10
52963;DHT22;38827;53.024;6.596;2022-09-27T07:36:25;11.20;81.30
52963;DHT22;38827;53.024;6.596;2022-09-27T07:38:58;11.20;81.30
52963;DHT22;38827;53.024;6.596;2022-09-27T07:41:24;11.10;81.40
52963;DHT22;38827;53.024;6.596;2022-09-27T07:44:22;11.10;81.60
52963;DHT22;38827;53.024;6.596;2022-09-27T07:46:57;11.10;81.30
52963;DHT22;38827;53.024;6.596;2022-09-27T07:50:12;11.10;81.60
52963;DHT22;38827;53.024;6.596;2022-09-27T07:56:24;11.30;81.70
52963;DHT22;38827;53.024;6.596;2022-09-27T07:58:53;12.10;81.80
52963;DHT22;38827;53.024;6.596;2022-09-27T08:01:19;13.30;79.10
52963;DHT22;38827;53.024;6.596;2022-09-27T08:03:45;14.50;75.50
52963;DHT22;38827;53.024;6.596;2022-09-27T08:06:11;15.00;73.00
52963;DHT22;38827;53.024;6.596;2022-09-27T08:08:37;15.10;72.10
52963;DHT22;38827;53.024;6.596;2022-09-27T08:11:13;15.00;71.70
52963;DHT22;38827;53.024;6.596;2022-09-27T08:13:44;14.90;71.80
52963;DHT22;38827;53.024;6.596;2022-09-27T08:16:10;14.80;71.70
52963;DHT22;38827;53.024;6.596;2022-09-27T08:18:36;14.60;71.90
52963;DHT22;38827;53.024;6.596;2022-09-27T08:21:04;14.70;72.00
52963;DHT22;38827;53.024;6.596;2022-09-27T08:23:30;15.00;71.90
52963;DHT22;38827;53.024;6.596;2022-09-27T08:25:56;15.60;70.60
52963;DHT22;38827;53.024;6.596;2022-09-27T08:28:24;16.00;68.90
52963;DHT22;38827;53.024;6.596;2022-09-27T08:30:50;16.10;67.90
52963;DHT22;38827;53.024;6.596;2022-09-27T08:33:16;16.20;67.40
52963;DHT22;38827;53.024;6.596;2022-09-27T08:35:42;16.20;67.00
52963;DHT22;38827;53.024;6.596;2022-09-27T08:38:08;16.00;67.10
52963;DHT22;38827;53.024;6.596;2022-09-27T08:40:56;15.70;67.10
52963;DHT22;38827;53.024;6.596;2022-09-27T08:43:36;15.50;67.20
52963;DHT22;38827;53.024;6.596;2022-09-27T09:11:58;15.80;65.60
52963;DHT22;38827;53.024;6.596;2022-09-27T09:18:08;15.60;66.40
52963;DHT22;38827;53.024;6.596;2022-09-27T09:37:48;17.80;60.60
52963;DHT22;38827;53.024;6.596;2022-09-27T09:40:35;17.80;60.70
52963;DHT22;38827;53.024;6.596;2022-09-27T09:43:50;18.50;59.00
52963;DHT22;38827;53.024;6.596;2022-09-27T09:46:20;19.40;56.10
52963;DHT22;38827;53.024;6.596;2022-09-27T09:49:09;19.80;56.20
52963;DHT22;38827;53.024;6.596;2022-09-27T09:51:51;20.00;54.80
52963;DHT22;38827;53.024;6.596;2022-09-27T09:54:37;20.00;55.60
52963;DHT22;38827;53.024;6.596;2022-09-27T09:57:11;19.70;54.20
52963;DHT22;38827;53.024;6.596;2022-09-27T09:59:46;19.20;55.00
52963;DHT22;38827;53.024;6.596;2022-09-27T10:07:14;17.60;58.60
52963;DHT22;38827;53.024;6.596;2022-09-27T10:09:44;17.20;59.70
52963;DHT22;38827;53.024;6.596;2022-09-27T10:12:25;16.80;59.00
52963;DHT22;38827;53.024;6.596;2022-09-27T10:14:52;16.30;57.20
52963;DHT22;38827;53.024;6.596;2022-09-27T10:17:26;15.80;59.20
52963;DHT22;38827;53.024;6.596;2022-09-27T10:19:56;15.20;60.40
52963;DHT22;38827;53.024;6.596;2022-09-27T10:22:36;14.60;62.00
52963;DHT22;38827;53.024;6.596;2022-09-27T10:25:21;14.10;63.50
52963;DHT22;38827;53.024;6.596;2022-09-27T10:27:49;13.60;65.20
52963;DHT22;38827;53.024;6.596;2022-09-27T10:30:30;13.20;66.10
52963;DHT22;38827;53.024;6.596;2022-09-27T10:33:04;13.00;67.30
52963;DHT22;38827;53.024;6.596;2022-09-27T10:35:52;12.70;68.50
52963;DHT22;38827;53.024;6.596;2022-09-27T10:38:35;12.60;69.50
52963;DHT22;38827;53.024;6.596;2022-09-27T10:41:24;12.50;70.00
52963;DHT22;38827;53.024;6.596;2022-09-27T10:47:29;12.30;71.20
52963;DHT22;38827;53.024;6.596;2022-09-27T10:50:23;12.20;71.30
52963;DHT22;38827;53.024;6.596;2022-09-27T10:53:14;12.30;71.60
52963;DHT22;38827;53.024;6.596;2022-09-27T10:55:49;12.50;71.90
52963;DHT22;38827;53.024;6.596;2022-09-27T10:58:23;12.90;71.70
52963;DHT22;38827;53.024;6.596;2022-09-27T11:03:37;13.90;71.10
52963;DHT22;38827;53.024;6.596;2022-09-27T11:08:49;16.20;65.60
52963;DHT22;38827;53.024;6.596;2022-09-27T11:11:26;16.30;64.40
52963;DHT22;38827;53.024;6.596;2022-09-27T11:16:40;15.40;64.30
52963;DHT22;38827;53.024;6.596;2022-09-27T11:28:21;13.00;67.70
52963;DHT22;38827;53.024;6.596;2022-09-27T11:31:00;12.90;68.60
52963;DHT22;38827;53.024;6.596;2022-09-27T11:33:56;13.00;69.40
52963;DHT22;38827;53.024;6.596;2022-09-27T11:39:28;15.50;66.90
52963;DHT22;38827;53.024;6.596;2022-09-27T11:42:31;17.20;63.00
52963;DHT22;38827;53.024;6.596;2022-09-27T11:45:31;18.40;60.60
52963;DHT22;38827;53.024;6.596;2022-09-27T11:48:11;19.50;57.50
52963;DHT22;38827;53.024;6.596;2022-09-27T11:53:30;21.80;51.80
52963;DHT22;38827;53.024;6.596;2022-09-27T11:56:10;22.40;51.80
52963;DHT22;38827;53.024;6.596;2022-09-27T12:09:55;22.90;45.70
52963;DHT22;38827;53.024;6.596;2022-09-27T12:12:25;22.80;46.90
52963;DHT22;38827;53.024;6.596;2022-09-27T12:15:19;22.60;46.90
52963;DHT22;38827;53.024;6.596;2022-09-27T12:21:06;21.40;49.10
52963;DHT22;38827;53.024;6.596;2022-09-27T12:23:54;20.50;50.30
52963;DHT22;38827;53.024;6.596;2022-09-27T12:26:39;19.80;50.80
52963;DHT22;38827;53.024;6.596;2022-09-27T12:29:29;19.10;52.50
52963;DHT22;38827;53.024;6.596;2022-09-27T12:40:56;16.50;56.70
52963;DHT22;38827;53.024;6.596;2022-09-27T12:43:25;15.90;58.90
52963;DHT22;38827;53.024;6.596;2022-09-27T12:49:11;15.40;60.70
52963;DHT22;38827;53.024;6.596;2022-09-27T12:52:02;15.10;61.40
52963;DHT22;38827;53.024;6.596;2022-09-27T13:00:56;14.10;64.60
52963;DHT22;38827;53.024;6.596;2022-09-27T13:06:47;13.50;66.30
52963;DHT22;38827;53.024;6.596;2022-09-27T13:09:40;13.40;67.20
52963;DHT22;38827;53.024;6.596;2022-09-27T13:12:32;13.40;68.30
52963;DHT22;38827;53.024;6.596;2022-09-27T13:17:53;14.10;67.10
52963;DHT22;38827;53.024;6.596;2022-09-27T13:25:52;16.10;62.70
52963;DHT22;38827;53.024;6.596;2022-09-27T13:37:58;17.90;58.40
52963;DHT22;38827;53.024;6.596;2022-09-27T13:40:33;18.10;57.40
52963;DHT22;38827;53.024;6.596;2022-09-27T13:45:52;17.70;57.80
52963;DHT22;38827;53.024;6.596;2022-09-27T13:48:54;17.10;58.40
52963;DHT22;38827;53.024;6.596;2022-09-27T13:51:50;16.20;57.30
52963;DHT22;38827;53.024;6.596;2022-09-27T13:54:37;15.20;58.30
52963;DHT22;38827;53.024;6.596;2022-09-27T13:57:04;14.40;60.60
52963;DHT22;38827;53.024;6.596;2022-09-27T13:59:46;13.80;62.50
52963;DHT22;38827;53.024;6.596;2022-09-27T14:02:22;13.40;63.30
52963;DHT22;38827;53.024;6.596;2022-09-27T14:04:50;13.10;64.80
52963;DHT22;38827;53.024;6.596;2022-09-27T14:07:20;12.80;65.50
52963;DHT22;38827;53.024;6.596;2022-09-27T14:09:54;12.60;66.10
52963;DHT22;38827;53.024;6.596;2022-09-27T14:12:28;12.50;66.90
52963;DHT22;38827;53.024;6.596;2022-09-27T14:14:56;12.30;67.70
52963;DHT22;38827;53.024;6.596;2022-09-27T14:17:23;12.20;68.30
52963;DHT22;38827;53.024;6.596;2022-09-27T14:19:55;12.20;68.40
52963;DHT22;38827;53.024;6.596;2022-09-27T14:22:23;12.10;69.10
52963;DHT22;38827;53.024;6.596;2022-09-27T14:24:53;12.00;69.40
52963;DHT22;38827;53.024;6.596;2022-09-27T14:27:43;12.00;69.80
52963;DHT22;38827;53.024;6.596;2022-09-27T14:30:17;11.90;70.20
52963;DHT22;38827;53.024;6.596;2022-09-27T14:32:51;11.90;70.60
52963;DHT22;38827;53.024;6.596;2022-09-27T14:35:24;11.90;70.80
52963;DHT22;38827;53.024;6.596;2022-09-27T14:38:12;11.90;71.50
52963;DHT22;38827;53.024;6.596;2022-09-27T14:40:43;11.90;71.80
52963;DHT22;38827;53.024;6.596;2022-09-27T14:43:40;11.90;72.00
52963;DHT22;38827;53.024;6.596;2022-09-27T14:46:20;11.90;72.40
52963;DHT22;38827;53.024;6.596;2022-09-27T14:52:23;12.00;72.90
52963;DHT22;38827;53.024;6.596;2022-09-27T14:55:13;12.00;73.00
52963;DHT22;38827;53.024;6.596;2022-09-27T14:58:10;12.10;73.20
52963;DHT22;38827;53.024;6.596;2022-09-27T15:01:27;12.10;73.00
52963;DHT22;38827;53.024;6.596;2022-09-27T15:04:06;12.20;73.00
52963;DHT22;38827;53.024;6.596;2022-09-27T15:06:34;12.20;72.70
52963;DHT22;38827;53.024;6.596;2022-09-27T15:09:05;12.20;72.90
52963;DHT22;38827;53.024;6.596;2022-09-27T15:11:31;12.20;73.00
52963;DHT22;38827;53.024;6.596;2022-09-27T15:14:03;12.20;73.00
52963;DHT22;38827;53.024;6.596;2022-09-27T15:16:34;12.20;72.90
52963;DHT22;38827;53.024;6.596;2022-09-27T15:21:41;12.20;72.90
52963;DHT22;38827;53.024;6.596;2022-09-27T15:24:45;12.20;73.40
52963;DHT22;38827;53.024;6.596;2022-09-27T15:27:14;12.20;73.30
52963;DHT22;38827;53.024;6.596;2022-09-27T15:29:40;12.20;73.40
52963;DHT22;38827;53.024;6.596;2022-09-27T15:32:13;12.20;73.40
52963;DHT22;38827;53.024;6.596;2022-09-27T15:34:54;12.20;73.60
52963;DHT22;38827;53.024;6.596;2022-09-27T15:37:35;12.20;73.30
52963;DHT22;38827;53.024;6.596;2022-09-27T15:53:00;12.10;73.50
52963;DHT22;38827;53.024;6.596;2022-09-27T15:55:28;12.00;73.20
52963;DHT22;38827;53.024;6.596;2022-09-27T15:58:01;12.00;73.40
52963;DHT22;38827;53.024;6.596;2022-09-27T16:00:30;12.00;73.80
52963;DHT22;38827;53.024;6.596;2022-09-27T16:02:56;11.90;73.50
52963;DHT22;38827;53.024;6.596;2022-09-27T16:05:28;11.90;73.50
52963;DHT22;38827;53.024;6.596;2022-09-27T16:17:28;11.80;73.90
52963;DHT22;38827;53.024;6.596;2022-09-27T16:19:54;11.70;74.20
52963;DHT22;38827;53.024;6.596;2022-09-27T16:22:22;11.70;74.40
52963;DHT22;38827;53.024;6.596;2022-09-27T16:24:57;11.60;74.70
52963;DHT22;38827;53.024;6.596;2022-09-27T16:27:27;11.60;74.90
52963;DHT22;38827;53.024;6.596;2022-09-27T16:30:15;11.60;75.10
52963;DHT22;38827;53.024;6.596;2022-09-27T16:32:45;11.50;75.50
52963;DHT22;38827;53.024;6.596;2022-09-27T16:35:14;11.50;75.70
52963;DHT22;38827;53.024;6.596;2022-09-27T16:37:57;11.50;75.90
52963;DHT22;38827;53.024;6.596;2022-09-27T16:40:23;11.40;76.00
52963;DHT22;38827;53.024;6.596;2022-09-27T16:43:08;11.40;76.10
52963;DHT22;38827;53.024;6.596;2022-09-27T16:45:43;11.40;76.10
52963;DHT22;38827;53.024;6.596;2022-09-27T16:48:17;11.30;76.10
52963;DHT22;38827;53.024;6.596;2022-09-27T16:50:43;11.20;76.00
52963;DHT22;38827;53.024;6.596;2022-09-27T16:53:27;11.20;75.80
52963;DHT22;38827;53.024;6.596;2022-09-27T16:55:58;11.10;75.50
52963;DHT22;38827;53.024;6.596;2022-09-27T16:58:24;11.00;75.30
52963;DHT22;38827;53.024;6.596;2022-09-27T17:00:49;10.90;75.10
52963;DHT22;38827;53.024;6.596;2022-09-27T17:03:15;10.80;75.00
52963;DHT22;38827;53.024;6.596;2022-09-27T17:05:41;10.80;75.20
52963;DHT22;38827;53.024;6.596;2022-09-27T17:08:07;10.70;75.20
52963;DHT22;38827;53.024;6.596;2022-09-27T17:10:32;10.70;75.40
52963;DHT22;38827;53.024;6.596;2022-09-27T17:13:00;10.60;75.50
52963;DHT22;38827;53.024;6.596;2022-09-27T17:15:26;10.60;75.60
52963;DHT22;38827;53.024;6.596;2022-09-27T17:17:52;10.60;75.80
52963;DHT22;38827;53.024;6.596;2022-09-27T17:20:18;10.60;76.10
52963;DHT22;38827;53.024;6.596;2022-09-27T17:22:45;10.50;76.20
52963;DHT22;38827;53.024;6.596;2022-09-27T17:25:11;10.50;76.40
52963;DHT22;38827;53.024;6.596;2022-09-27T17:27:36;10.50;76.40
52963;DHT22;38827;53.024;6.596;2022-09-27T17:30:03;10.50;76.60
52963;DHT22;38827;53.024;6.596;2022-09-27T17:32:28;10.40;76.80
52963;DHT22;38827;53.024;6.596;2022-09-27T17:34:54;10.40;76.90
52963;DHT22;38827;53.024;6.596;2022-09-27T17:37:20;10.40;77.00
52963;DHT22;38827;53.024;6.596;2022-09-27T17:39:46;10.30;77.10
52963;DHT22;38827;53.024;6.596;2022-09-27T17:42:12;10.30;77.10
52963;DHT22;38827;53.024;6.596;2022-09-27T17:44:41;10.30;77.30
52963;DHT22;38827;53.024;6.596;2022-09-27T17:47:07;10.20;77.30
52963;DHT22;38827;53.024;6.596;2022-09-27T17:49:51;10.20;77.50
52963;DHT22;38827;53.024;6.596;2022-09-27T17:52:35;10.20;77.60
52963;DHT22;38827;53.024;6.596;2022-09-27T17:55:02;10.20;77.60
52963;DHT22;38827;53.024;6.596;2022-09-27T17:57:28;10.20;77.70
52963;DHT22;38827;53.024;6.596;2022-09-27T17:59:53;10.10;77.80
52963;DHT22;38827;53.024;6.596;2022-09-27T18:02:19;10.10;77.90
52963;DHT22;38827;53.024;6.596;2022-09-27T18:04:48;10.10;77.80
52963;DHT22;38827;53.024;6.596;2022-09-27T18:07:14;10.10;77.80
52963;DHT22;38827;53.024;6.596;2022-09-27T18:09:40;10.00;77.90
52963;DHT22;38827;53.024;6.596;2022-09-27T18:12:08;10.00;77.70
52963;DHT22;38827;53.024;6.596;2022-09-27T18:14:34;10.00;77.80
52963;DHT22;38827;53.024;6.596;2022-09-27T18:17:01;10.00;78.00
52963;DHT22;38827;53.024;6.596;2022-09-27T18:19:27;10.00;78.10
52963;DHT22;38827;53.024;6.596;2022-09-27T18:21:52;10.00;78.10
52963;DHT22;38827;53.024;6.596;2022-09-27T18:24:18;10.00;78.10
52963;DHT22;38827;53.024;6.596;2022-09-27T18:26:44;9.90;78.30
52963;DHT22;38827;53.024;6.596;2022-09-27T18:29:13;9.90;78.30
52963;DHT22;38827;53.024;6.596;2022-09-27T18:31:39;9.90;78.10
52963;DHT22;38827;53.024;6.596;2022-09-27T18:34:06;9.90;78.20
52963;DHT22;38827;53.024;6.596;2022-09-27T18:36:32;9.90;78.30
52963;DHT22;38827;53.024;6.596;2022-09-27T18:39:00;9.90;78.20
52963;DHT22;38827;53.024;6.596;2022-09-27T18:41:28;9.80;78.40
52963;DHT22;38827;53.024;6.596;2022-09-27T18:44:04;9.80;78.20
52963;DHT22;38827;53.024;6.596;2022-09-27T18:46:32;9.80;78.10
52963;DHT22;38827;53.024;6.596;2022-09-27T18:49:07;9.70;78.00
52963;DHT22;38827;53.024;6.596;2022-09-27T18:51:36;9.70;78.00
52963;DHT22;38827;53.024;6.596;2022-09-27T18:54:18;9.70;78.10
52963;DHT22;38827;53.024;6.596;2022-09-27T18:56:44;9.70;78.20
52963;DHT22;38827;53.024;6.596;2022-09-27T18:59:15;9.60;78.10
52963;DHT22;38827;53.024;6.596;2022-09-27T19:01:44;9.60;77.90
52963;DHT22;38827;53.024;6.596;2022-09-27T19:04:15;9.60;77.90
52963;DHT22;38827;53.024;6.596;2022-09-27T19:06:41;9.60;77.80
52963;DHT22;38827;53.024;6.596;2022-09-27T19:09:07;9.60;77.80
52963;DHT22;38827;53.024;6.596;2022-09-27T19:11:35;9.50;78.00
52963;DHT22;38827;53.024;6.596;2022-09-27T19:14:01;9.50;77.90
52963;DHT22;38827;53.024;6.596;2022-09-27T19:16:28;9.50;78.00
52963;DHT22;38827;53.024;6.596;2022-09-27T19:18:54;9.50;78.00
52963;DHT22;38827;53.024;6.596;2022-09-27T19:21:25;9.40;78.00
52963;DHT22;38827;53.024;6.596;2022-09-27T19:24:08;9.40;78.20
52963;DHT22;38827;53.024;6.596;2022-09-27T19:26:34;9.40;78.30
52963;DHT22;38827;53.024;6.596;2022-09-27T19:29:00;9.30;78.50
52963;DHT22;38827;53.024;6.596;2022-09-27T19:31:26;9.30;78.70
52963;DHT22;38827;53.024;6.596;2022-09-27T19:33:53;9.20;78.80
52963;DHT22;38827;53.024;6.596;2022-09-27T19:36:20;9.20;79.10
52963;DHT22;38827;53.024;6.596;2022-09-27T19:38:46;9.10;79.40
52963;DHT22;38827;53.024;6.596;2022-09-27T19:41:14;9.10;79.40
52963;DHT22;38827;53.024;6.596;2022-09-27T19:43:41;9.00;79.60
52963;DHT22;38827;53.024;6.596;2022-09-27T19:46:11;9.00;79.80
52963;DHT22;38827;53.024;6.596;2022-09-27T19:48:38;9.00;80.00
52963;DHT22;38827;53.024;6.596;2022-09-27T19:51:04;8.90;80.10
52963;DHT22;38827;53.024;6.596;2022-09-27T19:53:31;8.90;80.30
52963;DHT22;38827;53.024;6.596;2022-09-27T19:55:58;8.80;80.40
52963;DHT22;38827;53.024;6.596;2022-09-27T19:58:25;8.80;80.60
52963;DHT22;38827;53.024;6.596;2022-09-27T20:01:02;8.80;80.60
52963;DHT22;38827;53.024;6.596;2022-09-27T20:03:30;8.80;80.80
52963;DHT22;38827;53.024;6.596;2022-09-27T20:05:57;8.80;80.80
52963;DHT22;38827;53.024;6.596;2022-09-27T20:08:26;8.80;80.80
52963;DHT22;38827;53.024;6.596;2022-09-27T20:11:19;8.70;80.80
52963;DHT22;38827;53.024;6.596;2022-09-27T20:13:46;8.70;81.10
52963;DHT22;38827;53.024;6.596;2022-09-27T20:16:21;8.70;81.00
52963;DHT22;38827;53.024;6.596;2022-09-27T20:18:51;8.80;81.20
52963;DHT22;38827;53.024;6.596;2022-09-27T20:21:19;8.80;81.20
52963;DHT22;38827;53.024;6.596;2022-09-27T20:23:48;8.80;81.30
52963;DHT22;38827;53.024;6.596;2022-09-27T20:26:15;8.80;81.50
52963;DHT22;38827;53.024;6.596;2022-09-27T20:28:43;8.80;81.60
52963;DHT22;38827;53.024;6.596;2022-09-27T20:31:10;8.80;81.50
52963;DHT22;38827;53.024;6.596;2022-09-27T20:33:36;8.80;81.60
52963;DHT22;38827;53.024;6.596;2022-09-27T20:36:23;8.80;81.70
52963;DHT22;38827;53.024;6.596;2022-09-27T20:38:55;8.80;81.80
52963;DHT22;38827;53.024;6.596;2022-09-27T20:41:23;8.90;82.00
52963;DHT22;38827;53.024;6.596;2022-09-27T20:46:51;8.90;81.80
52963;DHT22;38827;53.024;6.596;2022-09-27T20:49:17;8.90;81.80